Otacilio Costa, Brazil
Current Conditions -  °F | °C
As of 7:00 PM on Thursday 18 Dec 2014 (Local Time) from SBCM Reporting Station
Broken Clouds Broken Clouds  
Wind Chill: 75°   Ceiling: 4000
Heat Index: 75°   Visibility: 6mi
Dew Point: 66°   Wind: 3mph
Humidity: 73%   Direction: 160°SSE
Pressure: 29.83"   Gusts: NA
Location:  27.48°S, 50.12°W
Report Text: SBCM 182100Z 16003KT 9999 FEW020 BKN040 24/19 Q1010
Loading
Personal Weather Stations






























Interactive Weather Map New forecast layout! Learn more

10-Day Weather Forecast

Advertisements
Track Severe Weather on mobile